Time,TemperatureF,DewpointF,PressureIn,WindDirection,WindDirectionDegrees,WindSpeedMPH,WindSpeedGustMPH,Humidity,HourlyPrecipIn,Conditions,Clouds,dailyrainin,SoftwareType,DateUTC
2013-08-05 00:02:00,57.0,53.0,30.01,ESE,113,0.0,0.0,86,0.00,,,0.00,,2013-08-05 05:02:00,
2013-08-05 00:12:00,57.0,53.0,30.01,ESE,113,0.0,0.0,88,0.00,,,0.00,,2013-08-05 05:12:00,
2013-08-05 00:22:00,57.0,53.0,30.01,ESE,113,0.0,0.0,88,0.00,,,0.00,,2013-08-05 05:22:00,
2013-08-05 00:32:00,56.0,53.0,30.01,ESE,113,0.0,0.0,90,0.00,,,0.00,,2013-08-05 05:32:00,
2013-08-05 00:42:00,56.0,53.0,30.00,ESE,113,0.0,0.0,90,0.00,,,0.00,,2013-08-05 05:42:00,
2013-08-05 00:53:00,56.0,53.0,30.00,ESE,113,0.0,0.0,90,0.00,,,0.00,,2013-08-05 05:53:00,
2013-08-05 01:02:00,56.0,53.0,30.00,ESE,113,0.0,0.0,91,0.00,,,0.00,,2013-08-05 06:02:00,
2013-08-05 01:12:00,55.0,52.0,29.98,ESE,113,0.0,0.0,91,0.00,,,0.00,,2013-08-05 06:12:00,
2013-08-05 01:22:00,55.0,52.0,29.98,ESE,113,0.0,0.0,91,0.00,,,0.00,,2013-08-05 06:22:00,
2013-08-05 01:32:00,55.0,53.0,29.97,ESE,113,0.0,1.0,92,0.00,,,0.00,,2013-08-05 06:32:00,
2013-08-05 01:43:00,54.0,52.0,29.97,ESE,113,0.0,0.0,92,0.00,,,0.00,,2013-08-05 06:43:00,
2013-08-05 01:52:00,54.0,52.0,29.97,ESE,113,0.0,0.0,92,0.00,,,0.00,,2013-08-05 06:52:00,
2013-08-05 02:02:00,55.0,53.0,29.98,ESE,113,0.0,0.0,93,0.00,,,0.00,,2013-08-05 07:02:00,
2013-08-05 02:12:00,55.0,53.0,29.97,ESE,113,0.0,0.0,92,0.00,,,0.00,,2013-08-05 07:12:00,
2013-08-05 02:22:00,55.0,53.0,29.97,ESE,113,0.0,0.0,92,0.00,,,0.00,,2013-08-05 07:22:00,
2013-08-05 02:32:00,55.0,53.0,29.97,ESE,113,0.0,0.0,92,0.00,,,0.00,,2013-08-05 07:32:00,
2013-08-05 02:43:00,55.0,53.0,29.97,ESE,113,0.0,0.0,92,0.00,,,0.00,,2013-08-05 07:43:00,
2013-08-05 02:53:00,55.0,53.0,29.97,ESE,113,0.0,0.0,92,0.00,,,0.00,,2013-08-05 07:53:00,
2013-08-05 03:02:00,55.0,53.0,29.97,ESE,113,0.0,0.0,92,0.00,,,0.00,,2013-08-05 08:02:00,
2013-08-05 03:12:00,55.0,53.0,29.97,ESE,113,0.0,0.0,93,0.00,,,0.00,,2013-08-05 08:12:00,
2013-08-05 03:22:00,55.0,53.0,29.97,ESE,113,0.0,0.0,93,0.00,,,0.00,,2013-08-05 08:22:00,
2013-08-05 03:34:00,56.0,54.0,29.97,ESE,113,0.0,0.0,92,0.00,,,0.00,,2013-08-05 08:34:00,
2013-08-05 03:53:00,56.0,53.0,29.96,ESE,113,0.0,1.0,91,0.00,,,0.00,,2013-08-05 08:53:00,
2013-08-05 04:06:00,56.0,53.0,29.97,ESE,113,0.0,0.0,90,0.00,,,0.00,,2013-08-05 09:06:00,
2013-08-05 04:17:00,56.0,53.0,29.97,ESE,113,0.0,0.0,90,0.00,,,0.00,,2013-08-05 09:17:00,
2013-08-05 04:27:00,56.0,53.0,29.97,ESE,113,0.0,0.0,90,0.00,,,0.00,,2013-08-05 09:27:00,
2013-08-05 04:39:00,56.0,53.0,29.96,ESE,113,0.0,0.0,90,0.00,,,0.00,,2013-08-05 09:39:00,
2013-08-05 04:47:00,57.0,54.0,29.96,ESE,113,0.0,0.0,90,0.00,,,0.00,,2013-08-05 09:47:00,
2013-08-05 04:53:00,57.0,54.0,29.96,ESE,113,0.0,0.0,90,0.00,,,0.00,,2013-08-05 09:53:00,
2013-08-05 05:09:00,57.0,54.0,29.95,SSW,207,0.0,5.0,90,0.00,,,0.00,,2013-08-05 10:09:00,
2013-08-05 05:15:00,58.0,55.0,29.94,SW,230,1.0,4.0,89,0.00,,,0.00,,2013-08-05 10:15:00,
2013-08-05 05:33:00,59.0,56.0,29.93,SW,229,0.0,5.0,89,0.00,,,0.00,,2013-08-05 10:33:00,
2013-08-05 05:53:00,59.0,56.0,29.93,SW,225,0.0,3.0,91,0.02,,,0.02,,2013-08-05 10:53:00,
2013-08-05 06:09:00,59.0,57.0,29.92,WSW,240,0.0,2.0,92,0.04,,,0.04,,2013-08-05 11:09:00,
2013-08-05 06:14:00,58.0,56.0,29.92,WSW,240,0.0,2.0,93,0.04,,,0.04,,2013-08-05 11:14:00,
2013-08-05 06:27:00,58.0,56.0,29.92,WSW,240,0.0,2.0,93,0.04,,,0.04,,2013-08-05 11:27:00,
2013-08-05 06:37:00,58.0,56.0,29.91,WSW,240,0.0,2.0,94,0.04,,,0.04,,2013-08-05 11:37:00,
2013-08-05 06:48:00,58.0,57.0,29.91,WSW,240,0.0,0.0,95,0.02,,,0.04,,2013-08-05 11:48:00,
2013-08-05 06:56:00,58.0,57.0,29.91,WSW,240,0.0,0.0,95,0.02,,,0.04,,2013-08-05 11:56:00,
2013-08-05 07:06:00,58.0,57.0,29.91,WSW,240,0.0,1.0,96,0.00,,,0.04,,2013-08-05 12:06:00,
2013-08-05 07:27:00,58.0,57.0,29.91,WSW,240,0.0,1.0,95,0.02,,,0.06,,2013-08-05 12:27:00,
2013-08-05 07:33:00,58.0,57.0,29.90,South,188,0.0,3.0,96,0.07,,,0.11,,2013-08-05 12:33:00,
2013-08-05 07:55:00,58.0,57.0,29.91,South,188,0.0,1.0,96,0.13,,,0.17,,2013-08-05 12:55:00,
2013-08-05 08:02:00,58.0,57.0,29.91,South,188,0.0,2.0,96,0.21,,,0.25,,2013-08-05 13:02:00,
2013-08-05 08:14:00,58.0,57.0,29.91,South,188,0.0,2.0,96,0.21,,,0.25,,2013-08-05 13:14:00,
2013-08-05 08:26:00,58.0,57.0,29.90,South,188,0.0,1.0,96,0.24,,,0.30,,2013-08-05 13:26:00,
2013-08-05 08:37:00,58.0,57.0,29.90,South,183,0.0,3.0,97,0.23,,,0.34,,2013-08-05 13:37:00,
2013-08-05 08:43:00,58.0,57.0,29.90,South,183,0.0,3.0,97,0.23,,,0.34,,2013-08-05 13:43:00,
2013-08-05 08:54:00,58.0,57.0,29.88,South,174,1.0,5.0,97,0.20,,,0.38,,2013-08-05 13:54:00,
2013-08-05 09:05:00,58.0,57.0,29.87,South,178,1.0,7.0,97,0.13,,,0.38,,2013-08-05 14:05:00,
2013-08-05 09:27:00,59.0,58.0,29.88,SSW,210,2.0,6.0,97,0.08,,,0.38,,2013-08-05 14:27:00,
2013-08-05 09:37:00,60.0,59.0,29.88,South,178,0.0,6.0,96,0.04,,,0.38,,2013-08-05 14:37:00,
2013-08-05 09:46:00,60.0,59.0,29.88,South,178,0.0,6.0,96,0.04,,,0.38,,2013-08-05 14:46:00,
2013-08-05 09:54:00,60.0,59.0,29.87,SSW,197,1.0,5.0,95,0.00,,,0.38,,2013-08-05 14:54:00,
2013-08-05 10:07:00,61.0,60.0,29.86,South,190,1.0,4.0,95,0.00,,,0.38,,2013-08-05 15:07:00,
2013-08-05 10:14:00,61.0,60.0,29.86,South,190,1.0,4.0,95,0.00,,,0.38,,2013-08-05 15:14:00,
2013-08-05 10:25:00,62.0,61.0,29.86,South,170,0.0,4.0,95,0.00,,,0.38,,2013-08-05 15:25:00,
2013-08-05 10:47:00,63.0,61.0,29.85,SE,142,0.0,4.0,94,0.00,,,0.38,,2013-08-05 15:47:00,
2013-08-05 10:58:00,63.0,61.0,29.85,WSW,251,1.0,3.0,92,0.00,,,0.38,,2013-08-05 15:58:00,
2013-08-05 11:08:00,64.0,62.0,29.85,SW,217,0.0,4.0,93,0.00,,,0.38,,2013-08-05 16:08:00,
2013-08-05 11:16:00,64.0,62.0,29.85,SW,217,0.0,4.0,93,0.00,,,0.38,,2013-08-05 16:16:00,
2013-08-05 11:25:00,65.0,62.0,29.85,WSW,252,1.0,5.0,91,0.00,,,0.38,,2013-08-05 16:25:00,
2013-08-05 11:33:00,65.0,62.0,29.85,WSW,258,0.0,5.0,90,0.00,,,0.38,,2013-08-05 16:33:00,
2013-08-05 11:45:00,65.0,62.0,29.85,WSW,258,0.0,5.0,90,0.00,,,0.38,,2013-08-05 16:45:00,
2013-08-05 12:00:00,64.0,61.0,29.84,SSW,212,1.0,6.0,90,0.00,,,0.38,,2013-08-05 17:00:00,
2013-08-05 12:16:00,65.0,62.0,29.84,SSW,198,1.0,4.0,90,0.00,,,0.38,,2013-08-05 17:16:00,
2013-08-05 12:22:00,64.0,61.0,29.84,WSW,237,1.0,3.0,90,0.00,,,0.38,,2013-08-05 17:22:00,
2013-08-05 12:36:00,65.0,62.0,29.83,South,177,0.0,2.0,90,0.00,,,0.38,,2013-08-05 17:36:00,
2013-08-05 12:47:00,65.0,62.0,29.83,South,177,0.0,2.0,90,0.00,,,0.38,,2013-08-05 17:47:00,
2013-08-05 13:00:00,65.0,62.0,29.83,West,268,0.0,3.0,90,0.00,,,0.38,,2013-08-05 18:00:00,
2013-08-05 13:08:00,66.0,63.0,29.83,West,277,1.0,5.0,89,0.00,,,0.38,,2013-08-05 18:08:00,
2013-08-05 13:13:00,66.0,63.0,29.83,West,277,1.0,5.0,89,0.00,,,0.38,,2013-08-05 18:13:00,
2013-08-05 13:26:00,66.0,63.0,29.83,South,182,0.0,5.0,89,0.00,,,0.38,,2013-08-05 18:26:00,
2013-08-05 13:36:00,65.0,62.0,29.83,SW,227,1.0,4.0,89,0.00,,,0.38,,2013-08-05 18:36:00,
2013-08-05 13:44:00,65.0,62.0,29.83,SW,227,1.0,4.0,89,0.00,,,0.38,,2013-08-05 18:44:00,
2013-08-05 13:54:00,65.0,62.0,29.83,SSW,192,0.0,2.0,91,0.00,,,0.38,,2013-08-05 18:54:00,
2013-08-05 14:05:00,65.0,62.0,29.83,SSW,192,0.0,2.0,91,0.00,,,0.38,,2013-08-05 19:05:00,
2013-08-05 14:14:00,65.0,62.0,29.83,SSW,192,0.0,2.0,91,0.00,,,0.38,,2013-08-05 19:14:00,
2013-08-05 14:26:00,66.0,64.0,29.82,SW,217,0.0,1.0,93,0.00,,,0.38,,2013-08-05 19:26:00,
2013-08-05 14:37:00,66.0,63.0,29.81,West,263,0.0,3.0,91,0.00,,,0.38,,2013-08-05 19:37:00,
2013-08-05 14:53:00,66.0,63.0,29.81,West,263,0.0,3.0,91,0.00,,,0.38,,2013-08-05 19:53:00,
2013-08-05 15:08:00,67.0,63.0,29.81,West,266,0.0,4.0,88,0.00,,,0.38,,2013-08-05 20:08:00,
2013-08-05 15:15:00,67.0,63.0,29.81,West,266,0.0,4.0,88,0.00,,,0.38,,2013-08-05 20:15:00,
2013-08-05 15:27:00,67.0,64.0,29.81,West,269,0.0,3.0,89,0.00,,,0.38,,2013-08-05 20:27:00,
2013-08-05 15:37:00,67.0,64.0,29.81,West,269,0.0,3.0,89,0.00,,,0.38,,2013-08-05 20:37:00,
2013-08-05 15:47:00,67.0,64.0,29.81,West,269,0.0,3.0,89,0.00,,,0.38,,2013-08-05 20:47:00,
2013-08-05 16:01:00,67.0,64.0,29.80,SW,235,0.0,5.0,89,0.00,,,0.38,,2013-08-05 21:01:00,
2013-08-05 16:06:00,67.0,63.0,29.80,WNW,283,1.0,6.0,88,0.00,,,0.38,,2013-08-05 21:06:00,
2013-08-05 16:17:00,67.0,63.0,29.80,WNW,283,1.0,6.0,88,0.00,,,0.38,,2013-08-05 21:17:00,
2013-08-05 16:26:00,67.0,63.0,29.80,West,275,1.0,4.0,88,0.00,,,0.38,,2013-08-05 21:26:00,
2013-08-05 16:33:00,68.0,64.0,29.80,West,279,1.0,5.0,87,0.00,,,0.38,,2013-08-05 21:33:00,
2013-08-05 16:45:00,68.0,64.0,29.80,West,279,1.0,5.0,87,0.00,,,0.38,,2013-08-05 21:45:00,
2013-08-05 16:54:00,70.0,65.0,29.79,SW,223,0.0,3.0,84,0.00,,,0.38,,2013-08-05 21:54:00,
2013-08-05 17:05:00,70.0,65.0,29.79,West,264,0.0,4.0,83,0.00,,,0.38,,2013-08-05 22:05:00,
2013-08-05 17:14:00,70.0,65.0,29.79,West,264,0.0,4.0,83,0.00,,,0.38,,2013-08-05 22:14:00,
2013-08-05 17:26:00,71.0,66.0,29.78,West,264,0.0,1.0,85,0.00,,,0.38,,2013-08-05 22:26:00,
2013-08-05 17:37:00,71.0,66.0,29.78,West,264,0.0,2.0,83,0.00,,,0.38,,2013-08-05 22:37:00,
2013-08-05 17:44:00,71.0,66.0,29.78,West,264,0.0,2.0,83,0.00,,,0.38,,2013-08-05 22:44:00,
2013-08-05 17:53:00,70.0,66.0,29.78,West,264,0.0,1.0,86,0.00,,,0.38,,2013-08-05 22:53:00,
2013-08-05 18:06:00,71.0,66.0,29.77,West,264,0.0,2.0,84,0.00,,,0.38,,2013-08-05 23:06:00,
2013-08-05 18:15:00,71.0,66.0,29.77,West,264,0.0,2.0,84,0.00,,,0.38,,2013-08-05 23:15:00,
2013-08-05 18:26:00,71.0,66.0,29.77,NNE,21,0.0,2.0,83,0.00,,,0.38,,2013-08-05 23:26:00,
2013-08-05 18:33:00,71.0,65.0,29.77,NNE,21,0.0,1.0,82,0.00,,,0.38,,2013-08-05 23:33:00,
2013-08-05 18:46:00,71.0,65.0,29.77,NNE,21,0.0,1.0,82,0.00,,,0.38,,2013-08-05 23:46:00,
2013-08-05 19:02:00,72.0,66.0,29.76,NNE,21,0.0,1.0,81,0.00,,,0.38,,2013-08-06 00:02:00,
2013-08-05 19:15:00,72.0,66.0,29.75,NNE,27,0.0,3.0,82,0.00,,,0.38,,2013-08-06 00:15:00,
2013-08-05 19:24:00,70.0,65.0,29.75,NE,44,0.0,2.0,85,0.00,,,0.38,,2013-08-06 00:24:00,
2013-08-05 19:36:00,69.0,65.0,29.75,NE,46,0.0,3.0,87,0.00,,,0.38,,2013-08-06 00:36:00,
2013-08-05 19:45:00,69.0,65.0,29.75,NE,46,0.0,3.0,87,0.00,,,0.38,,2013-08-06 00:45:00,
2013-08-05 19:57:00,69.0,65.0,29.74,NE,41,0.0,1.0,88,0.00,,,0.38,,2013-08-06 00:57:00,
2013-08-05 20:07:00,69.0,66.0,29.74,NE,41,0.0,1.0,90,0.00,,,0.38,,2013-08-06 01:07:00,
2013-08-05 20:14:00,69.0,66.0,29.74,NE,41,0.0,1.0,90,0.00,,,0.38,,2013-08-06 01:14:00,
2013-08-05 20:27:00,68.0,65.0,29.75,NE,41,0.0,1.0,90,0.00,,,0.38,,2013-08-06 01:27:00,
2013-08-05 20:38:00,68.0,65.0,29.74,ENE,58,0.0,1.0,91,0.00,,,0.38,,2013-08-06 01:38:00,
2013-08-05 20:48:00,68.0,65.0,29.74,ENE,58,0.0,1.0,91,0.00,,,0.38,,2013-08-06 01:48:00,
2013-08-05 21:01:00,67.0,64.0,29.75,ENE,58,0.0,1.0,91,0.00,,,0.38,,2013-08-06 02:01:00,
2013-08-05 21:07:00,67.0,65.0,29.75,ENE,58,0.0,1.0,92,0.00,,,0.38,,2013-08-06 02:07:00,
2013-08-05 21:15:00,67.0,65.0,29.75,ENE,58,0.0,1.0,92,0.00,,,0.38,,2013-08-06 02:15:00,
2013-08-05 21:26:00,66.0,64.0,29.75,ENE,58,0.0,1.0,93,0.00,,,0.38,,2013-08-06 02:26:00,
2013-08-05 21:32:00,65.0,63.0,29.76,ENE,58,0.0,2.0,93,0.00,,,0.38,,2013-08-06 02:32:00,
2013-08-05 21:46:00,65.0,63.0,29.76,ENE,58,0.0,2.0,93,0.00,,,0.38,,2013-08-06 02:46:00,
2013-08-05 21:52:00,65.0,63.0,29.75,ENE,58,0.0,0.0,93,0.00,,,0.38,,2013-08-06 02:52:00,
2013-08-05 22:01:00,65.0,63.0,29.75,ENE,58,0.0,0.0,94,0.00,,,0.38,,2013-08-06 03:01:00,
2013-08-05 22:16:00,65.0,63.0,29.75,ENE,58,0.0,0.0,94,0.00,,,0.38,,2013-08-06 03:16:00,
2013-08-05 22:26:00,64.0,63.0,29.75,ENE,58,0.0,0.0,95,0.00,,,0.38,,2013-08-06 03:26:00,
2013-08-05 22:35:00,64.0,63.0,29.75,ENE,58,0.0,0.0,95,0.00,,,0.38,,2013-08-06 03:35:00,
2013-08-05 22:45:00,64.0,63.0,29.75,ENE,58,0.0,0.0,95,0.00,,,0.38,,2013-08-06 03:45:00,
2013-08-05 22:52:00,64.0,63.0,29.75,ENE,58,0.0,0.0,96,0.00,,,0.38,,2013-08-06 03:52:00,
2013-08-05 23:01:00,64.0,63.0,29.75,ENE,58,0.0,0.0,96,0.00,,,0.38,,2013-08-06 04:01:00,
2013-08-05 23:11:00,64.0,63.0,29.75,ENE,58,0.0,0.0,96,0.00,,,0.38,,2013-08-06 04:11:00,
2013-08-05 23:22:00,64.0,63.0,29.75,ENE,58,0.0,2.0,96,0.00,,,0.38,,2013-08-06 04:22:00,
2013-08-05 23:33:00,64.0,63.0,29.75,ENE,58,0.0,1.0,96,0.06,,,0.44,,2013-08-06 04:33:00,
2013-08-05 23:44:00,64.0,63.0,29.75,ENE,58,0.0,1.0,96,0.06,,,0.44,,2013-08-06 04:44:00,
2013-08-05 23:53:00,64.0,63.0,29.76,ENE,58,0.0,1.0,97,0.10,,,0.48,,2013-08-06 04:53:00,